sensor_id;sensor_type;location;lat;lon;timestamp;temperature;humidity
75931;DHT22;64609;47.052;15.462;2023-03-19T00:00:16;9.80;50.90
75931;DHT22;64609;47.052;15.462;2023-03-19T00:02:42;9.70;50.70
75931;DHT22;64609;47.052;15.462;2023-03-19T00:05:14;9.70;50.60
75931;DHT22;64609;47.052;15.462;2023-03-19T00:07:40;9.70;50.60
75931;DHT22;64609;47.052;15.462;2023-03-19T00:10:06;9.70;50.70
75931;DHT22;64609;47.052;15.462;2023-03-19T00:12:31;9.70;50.60
75931;DHT22;64609;47.052;15.462;2023-03-19T00:14:57;9.70;50.70
75931;DHT22;64609;47.052;15.462;2023-03-19T00:17:22;9.70;50.70
75931;DHT22;64609;47.052;15.462;2023-03-19T00:19:48;9.70;51.10
75931;DHT22;64609;47.052;15.462;2023-03-19T00:22:14;9.70;51.00
75931;DHT22;64609;47.052;15.462;2023-03-19T00:24:39;9.60;50.80
75931;DHT22;64609;47.052;15.462;2023-03-19T00:27:05;9.50;51.20
75931;DHT22;64609;47.052;15.462;2023-03-19T00:29:31;9.60;51.30
75931;DHT22;64609;47.052;15.462;2023-03-19T00:31:56;9.50;51.40
75931;DHT22;64609;47.052;15.462;2023-03-19T00:34:22;9.50;51.50
75931;DHT22;64609;47.052;15.462;2023-03-19T00:36:48;9.50;51.40
75931;DHT22;64609;47.052;15.462;2023-03-19T00:39:14;9.50;51.60
75931;DHT22;64609;47.052;15.462;2023-03-19T00:41:39;9.50;51.50
75931;DHT22;64609;47.052;15.462;2023-03-19T00:44:05;9.50;51.60
75931;DHT22;64609;47.052;15.462;2023-03-19T00:46:31;9.40;51.50
75931;DHT22;64609;47.052;15.462;2023-03-19T00:48:57;9.40;51.40
75931;DHT22;64609;47.052;15.462;2023-03-19T00:51:24;9.40;51.60
75931;DHT22;64609;47.052;15.462;2023-03-19T00:53:50;9.30;51.50
75931;DHT22;64609;47.052;15.462;2023-03-19T00:56:17;9.30;51.80
75931;DHT22;64609;47.052;15.462;2023-03-19T00:58:43;9.20;51.60
75931;DHT22;64609;47.052;15.462;2023-03-19T01:01:11;9.20;51.80
75931;DHT22;64609;47.052;15.462;2023-03-19T01:03:37;9.10;51.90
75931;DHT22;64609;47.052;15.462;2023-03-19T01:06:03;9.10;52.00
75931;DHT22;64609;47.052;15.462;2023-03-19T01:08:29;9.10;51.90
75931;DHT22;64609;47.052;15.462;2023-03-19T01:10:55;9.00;51.90
75931;DHT22;64609;47.052;15.462;2023-03-19T01:13:21;8.90;51.90
75931;DHT22;64609;47.052;15.462;2023-03-19T01:15:50;8.80;52.10
75931;DHT22;64609;47.052;15.462;2023-03-19T01:18:16;8.70;52.20
75931;DHT22;64609;47.052;15.462;2023-03-19T01:20:42;8.70;52.50
75931;DHT22;64609;47.052;15.462;2023-03-19T01:23:08;8.70;52.70
75931;DHT22;64609;47.052;15.462;2023-03-19T01:25:34;8.70;52.80
75931;DHT22;64609;47.052;15.462;2023-03-19T01:28:00;8.70;52.70
75931;DHT22;64609;47.052;15.462;2023-03-19T01:30:26;8.60;52.70
75931;DHT22;64609;47.052;15.462;2023-03-19T01:32:52;8.60;53.00
75931;DHT22;64609;47.052;15.462;2023-03-19T01:35:18;8.60;53.10
75931;DHT22;64609;47.052;15.462;2023-03-19T01:37:43;8.60;53.40
75931;DHT22;64609;47.052;15.462;2023-03-19T01:40:12;8.60;53.40
75931;DHT22;64609;47.052;15.462;2023-03-19T01:43:13;8.60;53.40
75931;DHT22;64609;47.052;15.462;2023-03-19T01:45:41;8.50;53.30
75931;DHT22;64609;47.052;15.462;2023-03-19T01:48:38;8.50;53.50
75931;DHT22;64609;47.052;15.462;2023-03-19T01:51:02;8.40;53.30
75931;DHT22;64609;47.052;15.462;2023-03-19T01:53:30;8.30;53.40
75931;DHT22;64609;47.052;15.462;2023-03-19T01:56:14;8.30;53.80
75931;DHT22;64609;47.052;15.462;2023-03-19T01:58:43;8.30;53.90
75931;DHT22;64609;47.052;15.462;2023-03-19T02:01:11;8.30;54.00
75931;DHT22;64609;47.052;15.462;2023-03-19T02:03:37;8.40;54.10
75931;DHT22;64609;47.052;15.462;2023-03-19T02:06:04;8.40;54.10
75931;DHT22;64609;47.052;15.462;2023-03-19T02:08:30;8.40;54.00
75931;DHT22;64609;47.052;15.462;2023-03-19T02:10:57;8.40;54.10
75931;DHT22;64609;47.052;15.462;2023-03-19T02:13:25;8.30;53.90
75931;DHT22;64609;47.052;15.462;2023-03-19T02:15:52;8.30;53.90
75931;DHT22;64609;47.052;15.462;2023-03-19T02:18:18;8.30;54.10
75931;DHT22;64609;47.052;15.462;2023-03-19T02:20:58;8.30;54.00
75931;DHT22;64609;47.052;15.462;2023-03-19T02:23:38;8.20;54.00
75931;DHT22;64609;47.052;15.462;2023-03-19T02:26:16;8.20;54.00
75931;DHT22;64609;47.052;15.462;2023-03-19T02:28:45;8.20;54.20
75931;DHT22;64609;47.052;15.462;2023-03-19T02:31:12;8.20;54.20
75931;DHT22;64609;47.052;15.462;2023-03-19T02:33:38;8.20;54.30
75931;DHT22;64609;47.052;15.462;2023-03-19T02:36:05;8.20;54.20
75931;DHT22;64609;47.052;15.462;2023-03-19T02:38:33;8.20;54.30
75931;DHT22;64609;47.052;15.462;2023-03-19T02:41:05;8.20;54.30
75931;DHT22;64609;47.052;15.462;2023-03-19T02:43:33;8.20;54.40
75931;DHT22;64609;47.052;15.462;2023-03-19T02:46:01;8.20;54.40
75931;DHT22;64609;47.052;15.462;2023-03-19T02:48:27;8.10;54.20
75931;DHT22;64609;47.052;15.462;2023-03-19T02:50:53;8.10;54.50
75931;DHT22;64609;47.052;15.462;2023-03-19T02:53:19;8.00;54.40
75931;DHT22;64609;47.052;15.462;2023-03-19T02:55:44;8.00;54.60
75931;DHT22;64609;47.052;15.462;2023-03-19T02:58:10;8.00;54.70
75931;DHT22;64609;47.052;15.462;2023-03-19T03:00:36;8.00;54.70
75931;DHT22;64609;47.052;15.462;2023-03-19T03:03:03;8.00;54.80
75931;DHT22;64609;47.052;15.462;2023-03-19T03:05:31;8.00;55.00
75931;DHT22;64609;47.052;15.462;2023-03-19T03:07:56;8.00;54.90
75931;DHT22;64609;47.052;15.462;2023-03-19T03:10:23;8.00;55.10
75931;DHT22;64609;47.052;15.462;2023-03-19T03:12:48;8.00;55.10
75931;DHT22;64609;47.052;15.462;2023-03-19T03:15:14;7.90;55.00
75931;DHT22;64609;47.052;15.462;2023-03-19T03:17:41;7.90;55.00
75931;DHT22;64609;47.052;15.462;2023-03-19T03:20:09;7.90;55.00
75931;DHT22;64609;47.052;15.462;2023-03-19T03:22:36;7.90;55.00
75931;DHT22;64609;47.052;15.462;2023-03-19T03:25:02;7.90;55.00
75931;DHT22;64609;47.052;15.462;2023-03-19T03:27:28;7.90;55.10
75931;DHT22;64609;47.052;15.462;2023-03-19T03:29:54;7.80;55.20
75931;DHT22;64609;47.052;15.462;2023-03-19T03:32:19;7.80;55.30
75931;DHT22;64609;47.052;15.462;2023-03-19T03:34:45;7.90;55.30
75931;DHT22;64609;47.052;15.462;2023-03-19T03:37:11;7.90;55.40
75931;DHT22;64609;47.052;15.462;2023-03-19T03:39:37;7.80;55.40
75931;DHT22;64609;47.052;15.462;2023-03-19T03:42:03;7.80;55.40
75931;DHT22;64609;47.052;15.462;2023-03-19T03:44:28;7.90;55.50
75931;DHT22;64609;47.052;15.462;2023-03-19T03:46:55;7.80;55.30
75931;DHT22;64609;47.052;15.462;2023-03-19T03:49:21;7.70;55.40
75931;DHT22;64609;47.052;15.462;2023-03-19T03:51:47;7.70;55.70
75931;DHT22;64609;47.052;15.462;2023-03-19T03:54:13;7.70;56.60
75931;DHT22;64609;47.052;15.462;2023-03-19T03:56:39;7.70;55.60
75931;DHT22;64609;47.052;15.462;2023-03-19T03:59:04;7.70;55.80
75931;DHT22;64609;47.052;15.462;2023-03-19T04:01:30;7.70;55.80
75931;DHT22;64609;47.052;15.462;2023-03-19T04:03:56;7.60;55.70
75931;DHT22;64609;47.052;15.462;2023-03-19T04:06:23;7.70;55.80
75931;DHT22;64609;47.052;15.462;2023-03-19T04:08:49;7.70;55.90
75931;DHT22;64609;47.052;15.462;2023-03-19T04:11:15;7.70;55.90
75931;DHT22;64609;47.052;15.462;2023-03-19T04:13:41;7.70;55.90
75931;DHT22;64609;47.052;15.462;2023-03-19T04:16:08;7.60;55.80
75931;DHT22;64609;47.052;15.462;2023-03-19T04:18:34;7.60;55.70
75931;DHT22;64609;47.052;15.462;2023-03-19T04:21:03;7.60;55.80
75931;DHT22;64609;47.052;15.462;2023-03-19T04:23:28;7.60;55.90
75931;DHT22;64609;47.052;15.462;2023-03-19T04:25:58;7.60;55.70
75931;DHT22;64609;47.052;15.462;2023-03-19T04:28:25;7.50;55.60
75931;DHT22;64609;47.052;15.462;2023-03-19T04:30:50;7.40;55.60
75931;DHT22;64609;47.052;15.462;2023-03-19T04:33:16;7.40;55.70
75931;DHT22;64609;47.052;15.462;2023-03-19T04:35:42;7.30;55.90
75931;DHT22;64609;47.052;15.462;2023-03-19T04:38:08;7.30;56.10
75931;DHT22;64609;47.052;15.462;2023-03-19T04:40:34;7.30;56.30
75931;DHT22;64609;47.052;15.462;2023-03-19T04:43:00;7.30;56.10
75931;DHT22;64609;47.052;15.462;2023-03-19T04:45:26;7.30;56.20
75931;DHT22;64609;47.052;15.462;2023-03-19T04:47:51;7.30;56.10
75931;DHT22;64609;47.052;15.462;2023-03-19T04:50:17;7.30;56.20
75931;DHT22;64609;47.052;15.462;2023-03-19T04:52:43;7.30;56.20
75931;DHT22;64609;47.052;15.462;2023-03-19T04:55:09;7.30;56.50
75931;DHT22;64609;47.052;15.462;2023-03-19T04:57:35;7.30;56.40
75931;DHT22;64609;47.052;15.462;2023-03-19T05:00:01;7.30;56.40
75931;DHT22;64609;47.052;15.462;2023-03-19T05:02:27;7.30;56.30
75931;DHT22;64609;47.052;15.462;2023-03-19T05:04:52;7.30;56.50
75931;DHT22;64609;47.052;15.462;2023-03-19T05:07:18;7.20;56.30
75931;DHT22;64609;47.052;15.462;2023-03-19T05:09:44;7.20;56.50
75931;DHT22;64609;47.052;15.462;2023-03-19T05:12:11;7.20;56.60
75931;DHT22;64609;47.052;15.462;2023-03-19T05:14:37;7.00;56.60
75931;DHT22;64609;47.052;15.462;2023-03-19T05:17:03;7.00;56.80
75931;DHT22;64609;47.052;15.462;2023-03-19T05:19:29;7.10;56.90
75931;DHT22;64609;47.052;15.462;2023-03-19T05:21:55;7.10;56.80
75931;DHT22;64609;47.052;15.462;2023-03-19T05:24:22;7.10;57.00
75931;DHT22;64609;47.052;15.462;2023-03-19T05:26:48;7.10;57.00
75931;DHT22;64609;47.052;15.462;2023-03-19T05:29:14;7.20;57.20
75931;DHT22;64609;47.052;15.462;2023-03-19T05:31:40;7.20;57.10
75931;DHT22;64609;47.052;15.462;2023-03-19T05:34:06;7.30;57.00
75931;DHT22;64609;47.052;15.462;2023-03-19T05:36:32;7.30;56.90
75931;DHT22;64609;47.052;15.462;2023-03-19T05:38:58;7.30;56.80
75931;DHT22;64609;47.052;15.462;2023-03-19T05:41:23;7.30;56.70
75931;DHT22;64609;47.052;15.462;2023-03-19T05:43:49;7.30;56.80
75931;DHT22;64609;47.052;15.462;2023-03-19T05:46:15;7.30;56.90
75931;DHT22;64609;47.052;15.462;2023-03-19T05:48:41;7.40;57.00
75931;DHT22;64609;47.052;15.462;2023-03-19T05:51:07;7.40;56.90
75931;DHT22;64609;47.052;15.462;2023-03-19T05:53:33;7.50;56.90
75931;DHT22;64609;47.052;15.462;2023-03-19T05:55:59;7.50;56.90
75931;DHT22;64609;47.052;15.462;2023-03-19T05:58:25;7.60;57.20
75931;DHT22;64609;47.052;15.462;2023-03-19T06:00:54;7.70;56.90
75931;DHT22;64609;47.052;15.462;2023-03-19T06:03:21;7.80;56.90
75931;DHT22;64609;47.052;15.462;2023-03-19T06:05:49;7.80;56.70
75931;DHT22;64609;47.052;15.462;2023-03-19T06:08:15;8.00;56.70
75931;DHT22;64609;47.052;15.462;2023-03-19T06:10:41;8.10;56.80
75931;DHT22;64609;47.052;15.462;2023-03-19T06:13:07;8.10;56.60
75931;DHT22;64609;47.052;15.462;2023-03-19T06:15:32;8.20;56.30
75931;DHT22;64609;47.052;15.462;2023-03-19T06:17:58;8.30;56.20
75931;DHT22;64609;47.052;15.462;2023-03-19T06:20:24;8.40;56.10
75931;DHT22;64609;47.052;15.462;2023-03-19T06:22:50;8.50;56.00
75931;DHT22;64609;47.052;15.462;2023-03-19T06:25:16;8.60;55.70
75931;DHT22;64609;47.052;15.462;2023-03-19T06:27:42;8.70;55.60
75931;DHT22;64609;47.052;15.462;2023-03-19T06:30:08;8.80;55.40
75931;DHT22;64609;47.052;15.462;2023-03-19T06:32:34;8.90;55.20
75931;DHT22;64609;47.052;15.462;2023-03-19T06:35:00;9.00;55.10
75931;DHT22;64609;47.052;15.462;2023-03-19T06:37:26;9.10;54.90
75931;DHT22;64609;47.052;15.462;2023-03-19T06:39:52;9.10;55.80
75931;DHT22;64609;47.052;15.462;2023-03-19T06:42:20;9.20;54.70
75931;DHT22;64609;47.052;15.462;2023-03-19T06:44:46;9.40;54.60
75931;DHT22;64609;47.052;15.462;2023-03-19T06:47:12;9.50;54.30
75931;DHT22;64609;47.052;15.462;2023-03-19T06:49:39;9.60;54.20
75931;DHT22;64609;47.052;15.462;2023-03-19T06:52:04;9.70;54.00
75931;DHT22;64609;47.052;15.462;2023-03-19T06:54:30;9.90;54.00
75931;DHT22;64609;47.052;15.462;2023-03-19T06:56:56;10.00;53.60
75931;DHT22;64609;47.052;15.462;2023-03-19T06:59:22;10.20;53.50
75931;DHT22;64609;47.052;15.462;2023-03-19T07:01:47;10.30;53.20
75931;DHT22;64609;47.052;15.462;2023-03-19T07:04:13;10.50;53.00
75931;DHT22;64609;47.052;15.462;2023-03-19T07:06:39;10.60;52.70
75931;DHT22;64609;47.052;15.462;2023-03-19T07:09:04;10.70;52.40
75931;DHT22;64609;47.052;15.462;2023-03-19T07:11:30;10.90;52.40
75931;DHT22;64609;47.052;15.462;2023-03-19T07:13:56;11.10;52.20
75931;DHT22;64609;47.052;15.462;2023-03-19T07:16:22;11.30;51.80
75931;DHT22;64609;47.052;15.462;2023-03-19T07:18:47;11.40;51.60
75931;DHT22;64609;47.052;15.462;2023-03-19T07:21:13;11.50;51.40
75931;DHT22;64609;47.052;15.462;2023-03-19T07:23:38;11.70;50.80
75931;DHT22;64609;47.052;15.462;2023-03-19T07:26:04;11.90;50.60
75931;DHT22;64609;47.052;15.462;2023-03-19T07:28:30;12.00;49.70
75931;DHT22;64609;47.052;15.462;2023-03-19T07:30:56;12.10;49.60
75931;DHT22;64609;47.052;15.462;2023-03-19T07:33:22;12.20;48.90
75931;DHT22;64609;47.052;15.462;2023-03-19T07:35:47;12.10;48.10
75931;DHT22;64609;47.052;15.462;2023-03-19T07:38:13;12.10;48.10
75931;DHT22;64609;47.052;15.462;2023-03-19T07:40:39;12.20;49.20
75931;DHT22;64609;47.052;15.462;2023-03-19T07:43:05;12.40;49.00
75931;DHT22;64609;47.052;15.462;2023-03-19T07:45:31;12.70;48.40
75931;DHT22;64609;47.052;15.462;2023-03-19T07:47:56;12.90;47.80
75931;DHT22;64609;47.052;15.462;2023-03-19T07:50:22;13.20;47.80
75931;DHT22;64609;47.052;15.462;2023-03-19T07:52:48;13.50;47.20
75931;DHT22;64609;47.052;15.462;2023-03-19T07:55:16;13.70;46.40
75931;DHT22;64609;47.052;15.462;2023-03-19T07:57:42;13.80;45.90
75931;DHT22;64609;47.052;15.462;2023-03-19T08:00:08;14.00;45.90
75931;DHT22;64609;47.052;15.462;2023-03-19T08:02:35;14.20;45.50
75931;DHT22;64609;47.052;15.462;2023-03-19T08:05:01;14.60;45.20
75931;DHT22;64609;47.052;15.462;2023-03-19T08:07:29;14.70;43.80
75931;DHT22;64609;47.052;15.462;2023-03-19T08:09:56;14.80;43.90
75931;DHT22;64609;47.052;15.462;2023-03-19T08:12:23;15.00;43.20
75931;DHT22;64609;47.052;15.462;2023-03-19T08:14:49;15.20;43.20
75931;DHT22;64609;47.052;15.462;2023-03-19T08:17:15;15.30;42.50
75931;DHT22;64609;47.052;15.462;2023-03-19T08:19:41;15.40;42.40
75931;DHT22;64609;47.052;15.462;2023-03-19T08:22:07;15.50;42.50
75931;DHT22;64609;47.052;15.462;2023-03-19T08:24:33;15.60;42.50
75931;DHT22;64609;47.052;15.462;2023-03-19T08:26:58;15.70;42.60
75931;DHT22;64609;47.052;15.462;2023-03-19T08:29:24;15.90;42.20
75931;DHT22;64609;47.052;15.462;2023-03-19T08:31:53;16.10;42.10
75931;DHT22;64609;47.052;15.462;2023-03-19T08:34:20;16.20;41.40
75931;DHT22;64609;47.052;15.462;2023-03-19T08:36:46;16.20;41.60
75931;DHT22;64609;47.052;15.462;2023-03-19T08:39:12;16.40;42.00
75931;DHT22;64609;47.052;15.462;2023-03-19T08:41:38;16.50;40.30
75931;DHT22;64609;47.052;15.462;2023-03-19T08:44:04;16.60;40.40
75931;DHT22;64609;47.052;15.462;2023-03-19T08:46:29;16.80;40.60
75931;DHT22;64609;47.052;15.462;2023-03-19T08:48:55;16.90;40.30
75931;DHT22;64609;47.052;15.462;2023-03-19T08:51:21;16.90;40.20
75931;DHT22;64609;47.052;15.462;2023-03-19T08:53:49;17.00;39.60
75931;DHT22;64609;47.052;15.462;2023-03-19T08:56:14;17.10;39.60
75931;DHT22;64609;47.052;15.462;2023-03-19T08:58:40;17.00;39.60
75931;DHT22;64609;47.052;15.462;2023-03-19T09:01:09;17.10;40.00
75931;DHT22;64609;47.052;15.462;2023-03-19T09:03:36;17.30;40.00
75931;DHT22;64609;47.052;15.462;2023-03-19T09:06:04;17.30;39.90
75931;DHT22;64609;47.052;15.462;2023-03-19T09:08:31;17.40;39.00
75931;DHT22;64609;47.052;15.462;2023-03-19T09:10:57;17.50;39.20
75931;DHT22;64609;47.052;15.462;2023-03-19T09:13:23;17.60;39.00
75931;DHT22;64609;47.052;15.462;2023-03-19T09:15:49;17.50;38.60
75931;DHT22;64609;47.052;15.462;2023-03-19T09:18:16;17.50;38.50
75931;DHT22;64609;47.052;15.462;2023-03-19T09:20:42;17.50;39.20
75931;DHT22;64609;47.052;15.462;2023-03-19T09:23:08;17.70;38.60
75931;DHT22;64609;47.052;15.462;2023-03-19T09:25:34;17.90;38.40
75931;DHT22;64609;47.052;15.462;2023-03-19T09:27:59;18.00;38.20
75931;DHT22;64609;47.052;15.462;2023-03-19T09:30:26;18.20;38.20
75931;DHT22;64609;47.052;15.462;2023-03-19T09:32:51;18.30;37.40
75931;DHT22;64609;47.052;15.462;2023-03-19T09:35:17;18.30;37.00
75931;DHT22;64609;47.052;15.462;2023-03-19T09:37:43;18.40;37.10
75931;DHT22;64609;47.052;15.462;2023-03-19T09:40:21;18.60;36.90
75931;DHT22;64609;47.052;15.462;2023-03-19T09:45:52;19.10;36.60
75931;DHT22;64609;47.052;15.462;2023-03-19T09:48:29;19.30;35.90
75931;DHT22;64609;47.052;15.462;2023-03-19T09:50:58;19.00;35.00
75931;DHT22;64609;47.052;15.462;2023-03-19T09:56:18;18.70;35.70
75931;DHT22;64609;47.052;15.462;2023-03-19T09:58:44;19.00;36.20
75931;DHT22;64609;47.052;15.462;2023-03-19T10:01:47;19.30;35.50
75931;DHT22;64609;47.052;15.462;2023-03-19T10:04:41;19.50;34.90
75931;DHT22;64609;47.052;15.462;2023-03-19T10:09:42;19.80;34.60
75931;DHT22;64609;47.052;15.462;2023-03-19T10:15:21;20.20;34.10
75931;DHT22;64609;47.052;15.462;2023-03-19T10:25:32;20.10;33.70
75931;DHT22;64609;47.052;15.462;2023-03-19T10:28:15;20.20;33.90
75931;DHT22;64609;47.052;15.462;2023-03-19T10:30:44;20.30;33.50
75931;DHT22;64609;47.052;15.462;2023-03-19T10:33:21;20.50;32.90
75931;DHT22;64609;47.052;15.462;2023-03-19T10:35:53;20.70;32.50
75931;DHT22;64609;47.052;15.462;2023-03-19T10:38:24;20.70;32.00
75931;DHT22;64609;47.052;15.462;2023-03-19T10:43:31;21.00;32.00
75931;DHT22;64609;47.052;15.462;2023-03-19T10:45:58;21.10;32.00
75931;DHT22;64609;47.052;15.462;2023-03-19T10:48:25;21.10;31.50
75931;DHT22;64609;47.052;15.462;2023-03-19T10:51:01;21.20;31.60
75931;DHT22;64609;47.052;15.462;2023-03-19T10:53:38;21.10;31.60
75931;DHT22;64609;47.052;15.462;2023-03-19T10:56:25;21.20;32.10
75931;DHT22;64609;47.052;15.462;2023-03-19T10:58:57;21.30;31.70
75931;DHT22;64609;47.052;15.462;2023-03-19T11:01:27;21.30;31.00
75931;DHT22;64609;47.052;15.462;2023-03-19T11:03:57;21.00;31.60
75931;DHT22;64609;47.052;15.462;2023-03-19T11:06:36;20.80;31.90
75931;DHT22;64609;47.052;15.462;2023-03-19T11:09:13;20.80;31.80
75931;DHT22;64609;47.052;15.462;2023-03-19T11:11:47;20.70;32.20
75931;DHT22;64609;47.052;15.462;2023-03-19T11:14:42;20.70;32.20
75931;DHT22;64609;47.052;15.462;2023-03-19T11:17:22;20.60;32.70
75931;DHT22;64609;47.052;15.462;2023-03-19T11:19:56;20.80;32.60
75931;DHT22;64609;47.052;15.462;2023-03-19T11:22:32;20.80;32.60
75931;DHT22;64609;47.052;15.462;2023-03-19T11:25:02;21.00;32.80
75931;DHT22;64609;47.052;15.462;2023-03-19T11:27:30;21.10;32.30
75931;DHT22;64609;47.052;15.462;2023-03-19T11:29:56;21.10;32.40
75931;DHT22;64609;47.052;15.462;2023-03-19T11:32:55;21.20;32.30
75931;DHT22;64609;47.052;15.462;2023-03-19T11:35:28;21.30;32.20
75931;DHT22;64609;47.052;15.462;2023-03-19T11:37:57;21.30;32.00
75931;DHT22;64609;47.052;15.462;2023-03-19T11:40:43;21.40;32.30
75931;DHT22;64609;47.052;15.462;2023-03-19T11:43:39;21.60;32.30
75931;DHT22;64609;47.052;15.462;2023-03-19T11:49:06;21.80;32.00
75931;DHT22;64609;47.052;15.462;2023-03-19T11:51:45;21.80;31.40
75931;DHT22;64609;47.052;15.462;2023-03-19T11:54:46;21.90;31.90
75931;DHT22;64609;47.052;15.462;2023-03-19T12:00:17;22.20;31.40
75931;DHT22;64609;47.052;15.462;2023-03-19T12:05:56;22.60;31.00
75931;DHT22;64609;47.052;15.462;2023-03-19T12:22:44;23.30;31.30
75931;DHT22;64609;47.052;15.462;2023-03-19T12:35:38;24.70;29.50
75931;DHT22;64609;47.052;15.462;2023-03-19T12:43:26;24.80;29.00
75931;DHT22;64609;47.052;15.462;2023-03-19T12:49:12;24.50;29.50
75931;DHT22;64609;47.052;15.462;2023-03-19T12:51:38;24.40;29.30
75931;DHT22;64609;47.052;15.462;2023-03-19T12:54:26;24.30;29.50
75931;DHT22;64609;47.052;15.462;2023-03-19T12:57:21;24.20;29.60
75931;DHT22;64609;47.052;15.462;2023-03-19T13:02:27;23.80;30.00
75931;DHT22;64609;47.052;15.462;2023-03-19T13:04:59;23.50;30.10
75931;DHT22;64609;47.052;15.462;2023-03-19T13:07:47;23.30;30.20
75931;DHT22;64609;47.052;15.462;2023-03-19T13:10:19;23.20;30.90
75931;DHT22;64609;47.052;15.462;2023-03-19T13:12:47;23.10;30.70
75931;DHT22;64609;47.052;15.462;2023-03-19T13:15:25;22.80;30.80
75931;DHT22;64609;47.052;15.462;2023-03-19T13:23:11;22.20;31.40
75931;DHT22;64609;47.052;15.462;2023-03-19T13:25:41;22.20;31.90
75931;DHT22;64609;47.052;15.462;2023-03-19T13:28:11;22.10;31.80
75931;DHT22;64609;47.052;15.462;2023-03-19T13:30:58;22.10;31.60
75931;DHT22;64609;47.052;15.462;2023-03-19T13:33:24;22.00;31.60
75931;DHT22;64609;47.052;15.462;2023-03-19T13:35:49;22.00;32.00
75931;DHT22;64609;47.052;15.462;2023-03-19T13:38:27;22.00;32.30
75931;DHT22;64609;47.052;15.462;2023-03-19T13:40:58;22.00;32.10
75931;DHT22;64609;47.052;15.462;2023-03-19T13:59:33;21.50;33.00
75931;DHT22;64609;47.052;15.462;2023-03-19T14:07:38;21.40;33.10
75931;DHT22;64609;47.052;15.462;2023-03-19T14:12:44;21.10;34.10
75931;DHT22;64609;47.052;15.462;2023-03-19T14:15:23;20.90;33.30
75931;DHT22;64609;47.052;15.462;2023-03-19T14:20:30;20.90;33.80
75931;DHT22;64609;47.052;15.462;2023-03-19T14:23:11;20.70;33.90
75931;DHT22;64609;47.052;15.462;2023-03-19T14:28:36;20.90;34.30
75931;DHT22;64609;47.052;15.462;2023-03-19T14:31:04;21.10;34.30
75931;DHT22;64609;47.052;15.462;2023-03-19T14:33:43;21.10;34.20
75931;DHT22;64609;47.052;15.462;2023-03-19T14:36:15;21.00;34.60
75931;DHT22;64609;47.052;15.462;2023-03-19T14:38:55;20.90;34.70
75931;DHT22;64609;47.052;15.462;2023-03-19T14:41:25;20.90;34.80
75931;DHT22;64609;47.052;15.462;2023-03-19T14:49:24;20.80;34.60
75931;DHT22;64609;47.052;15.462;2023-03-19T14:52:09;20.80;34.40
75931;DHT22;64609;47.052;15.462;2023-03-19T14:54:43;20.70;34.70
75931;DHT22;64609;47.052;15.462;2023-03-19T14:57:18;20.70;34.40
75931;DHT22;64609;47.052;15.462;2023-03-19T14:59:44;20.60;34.60
75931;DHT22;64609;47.052;15.462;2023-03-19T15:07:57;20.60;34.70
75931;DHT22;64609;47.052;15.462;2023-03-19T15:10:28;20.60;34.80
75931;DHT22;64609;47.052;15.462;2023-03-19T15:18:20;20.40;34.80
75931;DHT22;64609;47.052;15.462;2023-03-19T15:20:51;20.40;34.80
75931;DHT22;64609;47.052;15.462;2023-03-19T15:23:24;20.30;35.00
75931;DHT22;64609;47.052;15.462;2023-03-19T15:25:56;20.20;35.30
75931;DHT22;64609;47.052;15.462;2023-03-19T15:28:26;20.10;35.30
75931;DHT22;64609;47.052;15.462;2023-03-19T15:30:59;20.10;35.30
75931;DHT22;64609;47.052;15.462;2023-03-19T15:33:35;20.10;35.60
75931;DHT22;64609;47.052;15.462;2023-03-19T15:39:03;20.20;35.60
75931;DHT22;64609;47.052;15.462;2023-03-19T15:41:31;20.10;35.60
75931;DHT22;64609;47.052;15.462;2023-03-19T15:43:58;20.10;35.80
75931;DHT22;64609;47.052;15.462;2023-03-19T15:46:29;20.10;35.80
75931;DHT22;64609;47.052;15.462;2023-03-19T15:51:41;20.10;36.00
75931;DHT22;64609;47.052;15.462;2023-03-19T15:54:09;20.10;36.10
75931;DHT22;64609;47.052;15.462;2023-03-19T15:56:35;20.10;36.20
75931;DHT22;64609;47.052;15.462;2023-03-19T15:59:02;20.10;36.20
75931;DHT22;64609;47.052;15.462;2023-03-19T16:01:30;20.10;36.20
75931;DHT22;64609;47.052;15.462;2023-03-19T16:04:07;20.10;36.30
75931;DHT22;64609;47.052;15.462;2023-03-19T16:06:37;20.00;36.40
75931;DHT22;64609;47.052;15.462;2023-03-19T16:11:41;19.90;36.50
75931;DHT22;64609;47.052;15.462;2023-03-19T16:16:40;19.90;36.60
75931;DHT22;64609;47.052;15.462;2023-03-19T16:21:57;19.80;36.80
75931;DHT22;64609;47.052;15.462;2023-03-19T16:24:27;19.70;36.80
75931;DHT22;64609;47.052;15.462;2023-03-19T16:27:02;19.70;36.90
75931;DHT22;64609;47.052;15.462;2023-03-19T16:29:40;19.70;37.10
75931;DHT22;64609;47.052;15.462;2023-03-19T16:32:26;19.60;37.00
75931;DHT22;64609;47.052;15.462;2023-03-19T16:35:08;19.60;37.30
75931;DHT22;64609;47.052;15.462;2023-03-19T16:42:52;19.50;37.50
75931;DHT22;64609;47.052;15.462;2023-03-19T16:45:29;19.40;37.60
75931;DHT22;64609;47.052;15.462;2023-03-19T16:47:59;19.40;37.70
75931;DHT22;64609;47.052;15.462;2023-03-19T16:50:35;19.30;37.70
75931;DHT22;64609;47.052;15.462;2023-03-19T16:53:04;19.20;37.90
75931;DHT22;64609;47.052;15.462;2023-03-19T16:55:34;19.20;38.10
75931;DHT22;64609;47.052;15.462;2023-03-19T16:58:23;19.10;38.10
75931;DHT22;64609;47.052;15.462;2023-03-19T17:00:50;19.10;38.20
75931;DHT22;64609;47.052;15.462;2023-03-19T17:03:17;19.00;38.20
75931;DHT22;64609;47.052;15.462;2023-03-19T17:05:44;19.00;38.40
75931;DHT22;64609;47.052;15.462;2023-03-19T17:08:10;18.90;38.40
75931;DHT22;64609;47.052;15.462;2023-03-19T17:10:41;18.90;38.40
75931;DHT22;64609;47.052;15.462;2023-03-19T17:13:26;18.90;38.50
75931;DHT22;64609;47.052;15.462;2023-03-19T17:16:00;18.80;38.70
75931;DHT22;64609;47.052;15.462;2023-03-19T17:18:30;18.70;38.80
75931;DHT22;64609;47.052;15.462;2023-03-19T17:21:00;18.70;39.20
75931;DHT22;64609;47.052;15.462;2023-03-19T17:23:27;18.60;39.20
75931;DHT22;64609;47.052;15.462;2023-03-19T17:25:55;18.60;39.20
75931;DHT22;64609;47.052;15.462;2023-03-19T17:28:21;18.50;39.30
75931;DHT22;64609;47.052;15.462;2023-03-19T17:30:47;18.50;39.70
75931;DHT22;64609;47.052;15.462;2023-03-19T17:33:33;18.40;39.60
75931;DHT22;64609;47.052;15.462;2023-03-19T17:35:59;18.40;39.70
75931;DHT22;64609;47.052;15.462;2023-03-19T17:38:31;18.40;40.00
75931;DHT22;64609;47.052;15.462;2023-03-19T17:40:57;18.40;39.90
75931;DHT22;64609;47.052;15.462;2023-03-19T17:43:23;18.30;39.80
75931;DHT22;64609;47.052;15.462;2023-03-19T17:45:49;18.30;40.10
75931;DHT22;64609;47.052;15.462;2023-03-19T17:48:24;18.20;40.00
75931;DHT22;64609;47.052;15.462;2023-03-19T17:50:53;18.20;40.20